Terminal Aerodrome Forecast
Issued by NWS

Home | Current Version | Previous Version | Text Only | Print | Product List | Glossary On
Versions: 1 2 3 4 5 6 7 8 9 10 11 12 13 14
000
FTUS45 KTFX 011100
TAFGTF
TAF
KGTF 011139Z 0112/0212 24009KT P6SM VCSH SCT030 BKN060
      TEMPO 0112/0114 -SHRA BKN030
     FM011500 24015G20KT P6SM SCT050 BKN080
     FM020100 23015KT P6SM SCT120
     FM020900 22016KT P6SM SCT080 BKN120=

USA.gov is the U.S. government's official web portal to all federal, state and local government web resources and services.